| time (UTC) | temp C | wind direction | speed KPH | gust KPH | rain 1hr cm | rain 24hr cm | rain mn cm | humidity % | barometer mb |
| 20260906234004 | 25 | 136 | 1.6 | 6.4 | 0.00 | 0.00 | 0.00 | 34 | 1019.3 |
| 20260906233005 | 25 | 110 | 0.0 | 8.0 | 0.00 | 0.00 | 0.00 | 34 | 1019.7 |
| 20260906232005 | 25 | 228 | 1.6 | 8.0 | 0.00 | 0.00 | 0.00 | 36 | 1019.6 |
| 20260906231005 | 26 | 218 | 1.6 | 9.7 | 0.00 | 0.00 | 0.00 | 34 | 1019.7 |
| 20260906230005 | 25 | 200 | 3.2 | 12.9 | 0.00 | 0.00 | 0.00 | 34 | 1019.8 |
| 20260906225005 | 26 | 202 | 3.2 | 14.5 | 0.00 | 0.00 | 0.00 | 32 | 1019.7 |
| 20260906224005 | 26 | 205 | 4.8 | 19.3 | 0.00 | 0.00 | 0.00 | 32 | 1019.8 |
| 20260906223005 | 26 | 230 | 6.4 | 27.4 | 0.00 | 0.00 | 0.00 | 30 | 1019.3 |
| 20260906222004 | 26 | 231 | 4.8 | 24.1 | 0.00 | 0.00 | 0.00 | 31 | 1019.4 |
| 20260906221004 | 27 | 199 | 4.8 | 24.1 | 0.00 | 0.00 | 0.00 | 32 | 1019.2 |
| 20260906220005 | 27 | 192 | 4.8 | 22.5 | 0.00 | 0.00 | 0.00 | 31 | 1019.1 |
| 20260906215005 | 27 | 249 | 4.8 | 25.7 | 0.00 | 0.00 | 0.00 | 29 | 1019.3 |
| 20260906214005 | 27 | 226 | 6.4 | 30.6 | 0.00 | 0.00 | 0.00 | 30 | 1019.0 |
| 20260906213004 | 27 | 256 | 4.8 | 25.7 | 0.00 | 0.00 | 0.00 | 29 | 1018.8 |
| 20260906212005 | 27 | 235 | 4.8 | 22.5 | 0.00 | 0.00 | 0.00 | 30 | 1019.4 |
| 20260906211005 | 27 | 216 | 4.8 | 20.9 | 0.00 | 0.00 | 0.00 | 29 | 1019.2 |
| 20260906210004 | 27 | 193 | 4.8 | 27.4 | 0.00 | 0.00 | 0.00 | 26 | 1019.1 |
| 20260906205005 | 27 | 192 | 3.2 | 20.9 | 0.00 | 0.00 | 0.00 | 26 | 1019.3 |
| 20260906204004 | 27 | 254 | 3.2 | 19.3 | 0.00 | 0.00 | 0.00 | 28 | 1019.9 |
| 20260906203004 | 27 | 216 | 3.2 | 19.3 | 0.00 | 0.00 | 0.00 | 29 | 1020.0 |
| 20260906202004 | 27 | 268 | 3.2 | 17.7 | 0.00 | 0.00 | 0.00 | 27 | 1020.3 |
| 20260906201004 | 27 | 213 | 3.2 | 16.1 | 0.00 | 0.00 | 0.00 | 30 | 1020.2 |
| 20260906200004 | 26 | 204 | 3.2 | 16.1 | 0.00 | 0.00 | 0.00 | 30 | 1020.9 |
| 20260906195005 | 26 | 226 | 4.8 | 22.5 | 0.00 | 0.00 | 0.00 | 29 | 1021.4 |
| 20260906194004 | 26 | 257 | 3.2 | 20.9 | 0.00 | 0.00 | 0.00 | 28 | 1021.4 |
| 20260906193004 | 26 | 241 | 4.8 | 20.9 | 0.00 | 0.00 | 0.00 | 30 | 1021.1 |
| 20260906192004 | 26 | 249 | 4.8 | 22.5 | 0.00 | 0.00 | 0.00 | 30 | 1021.4 |
| 20260906191004 | 27 | 226 | 4.8 | 27.4 | 0.00 | 0.00 | 0.00 | 27 | 1021.0 |
| 20260906190004 | 26 | 266 | 4.8 | 22.5 | 0.00 | 0.00 | 0.00 | 26 | 1021.2 |
| 20260906185004 | 27 | 219 | 6.4 | 29.0 | 0.00 | 0.00 | 0.00 | 26 | 1021.3 |
| 20260906184004 | 26 | 241 | 6.4 | 29.0 | 0.00 | 0.00 | 0.00 | 27 | 1021.5 |
| 20260906183005 | 27 | 229 | 4.8 | 27.4 | 0.00 | 0.00 | 0.00 | 27 | 1021.3 |
| 20260906182005 | 26 | 215 | 6.4 | 24.1 | 0.00 | 0.00 | 0.00 | 27 | 1021.8 |
| 20260906181004 | 27 | 173 | 6.4 | 27.4 | 0.00 | 0.00 | 0.00 | 29 | 1021.8 |
| 20260906180005 | 26 | 231 | 4.8 | 24.1 | 0.00 | 0.00 | 0.00 | 27 | 1022.2 |
| 20260906175004 | 26 | 261 | 4.8 | 27.4 | 0.00 | 0.00 | 0.00 | 27 | 1022.6 |
| 20260906174004 | 26 | 236 | 8.0 | 29.0 | 0.00 | 0.00 | 0.00 | 25 | 1022.9 |
| 20260906173004 | 26 | 217 | 6.4 | 25.7 | 0.00 | 0.00 | 0.00 | 28 | 1023.1 |
| 20260906172004 | 25 | 192 | 6.4 | 30.6 | 0.00 | 0.00 | 0.00 | 25 | 1023.2 |
| 20260906171004 | 25 | 227 | 6.4 | 30.6 | 0.00 | 0.00 | 0.00 | 27 | 1023.5 |
| 20260906170004 | 25 | 243 | 6.4 | 30.6 | 0.00 | 0.00 | 0.00 | 28 | 1023.6 |
| 20260906165004 | 25 | 194 | 6.4 | 29.0 | 0.00 | 0.00 | 0.00 | 30 | 1023.7 |
| 20260906164005 | 25 | 204 | 4.8 | 30.6 | 0.00 | 0.00 | 0.00 | 28 | 1023.5 |
| 20260906163004 | 25 | 160 | 3.2 | 17.7 | 0.00 | 0.00 | 0.00 | 31 | 1023.9 |
| 20260906162004 | 24 | 247 | 1.6 | 12.9 | 0.00 | 0.00 | 0.00 | 34 | 1024.2 |
| 20260906161004 | 23 | 269 | 1.6 | 11.3 | 0.00 | 0.00 | 0.00 | 35 | 1025.1 |
| 20260906160004 | 22 | 235 | 0.0 | 6.4 | 0.00 | 0.00 | 0.00 | 35 | 1025.9 |
| 20260906155004 | 21 | 46 | 0.0 | 6.4 | 0.00 | 0.00 | 0.00 | 37 | 1026.2 |
| 20260906154004 | 20 | 350 | 1.6 | 8.0 | 0.00 | 0.00 | 0.00 | 42 | 1026.8 |
| 20260906153004 | 20 | 314 | 1.6 | 8.0 | 0.00 | 0.00 | 0.00 | 40 | 1027.5 |
| 20260906152004 | 19 | 351 | 0.0 | 4.8 | 0.00 | 0.00 | 0.00 | 41 | 1027.5 |
| 20260906151004 | 18 | 333 | 0.0 | 6.4 | 0.00 | 0.00 | 0.00 | 44 | 1027.9 |
| 20260906150004 | 17 | 301 | 0.0 | 6.4 | 0.00 | 0.00 | 0.00 | 43 | 1028.4 |
| 20260906145004 | 17 | 347 | 0.0 | 9.7 | 0.00 | 0.00 | 0.00 | 46 | 1028.8 |
| 20260906144004 | 16 | 315 | 1.6 | 11.3 | 0.00 | 0.00 | 0.00 | 47 | 1028.9 |
| 20260906143004 | 15 | 33 | 1.6 | 9.7 | 0.00 | 0.00 | 0.00 | 46 | 1029.6 |
| 20260906142004 | 15 | 106 | 1.6 | 8.0 | 0.00 | 0.00 | 0.00 | 46 | 1029.7 |
| 20260906141004 | 15 | 54 | 0.0 | 9.7 | 0.00 | 0.00 | 0.00 | 47 | 1030.2 |
| 20260906140004 | 14 | 3 | 1.6 | 9.7 | 0.00 | 0.00 | 0.00 | 45 | 1030.1 |
| 20260906135004 | 13 | 17 | 1.6 | 8.0 | 0.00 | 0.00 | 0.00 | 47 | 1030.5 |
| 20260906134004 | 11 | 21 | 1.6 | 9.7 | 0.00 | 0.00 | 0.00 | 57 | 1031.8 |
| 20260906133004 | 12 | 3 | 1.6 | 9.7 | 0.00 | 0.00 | 0.00 | 53 | 1031.5 |
| 20260906132005 | 12 | 19 | 1.6 | 6.4 | 0.00 | 0.00 | 0.00 | 48 | 1030.8 |
| 20260906131004 | 11 | 48 | 0.0 | 4.8 | 0.00 | 0.00 | 0.00 | 53 | 1031.4 |
| 20260906130004 | 11 | 19 | 0.0 | 4.8 | 0.00 | 0.00 | 0.00 | 61 | 1031.5 |
| 20260906125004 | 11 | 23 | 0.0 | 4.8 | 0.00 | 0.00 | 0.00 | 55 | 1031.6 |
| 20260906124004 | 11 | 58 | 0.0 | 4.8 | 0.00 | 0.00 | 0.00 | 58 | 1031.4 |
| 20260906123005 | 11 | 354 | 0.0 | 6.4 | 0.00 | 0.00 | 0.00 | 55 | 1031.2 |
| 20260906122005 | 11 | 351 | 0.0 | 6.4 | 0.00 | 0.00 | 0.00 | 57 | 1031.0 |
| 20260906121004 | 12 | 3 | 0.0 | 4.8 | 0.00 | 0.00 | 0.00 | 54 | 1030.6 |
| 20260906120005 | 12 | 353 | 1.6 | 6.4 | 0.00 | 0.00 | 0.00 | 50 | 1030.6 |
| 20260906115004 | 12 | 6 | 1.6 | 8.0 | 0.00 | 0.00 | 0.00 | 49 | 1030.4 |
| 20260906114004 | 12 | 14 | 1.6 | 8.0 | 0.00 | 0.00 | 0.00 | 48 | 1030.3 |
| 20260906113005 | 13 | 27 | 0.0 | 6.4 | 0.00 | 0.00 | 0.00 | 49 | 1029.9 |
| 20260906112005 | 16 | 307 | 1.6 | 16.1 | 0.00 | 0.00 | 0.00 | 42 | 1028.3 |
| 20260906111004 | 18 | 163 | 3.2 | 14.5 | 0.00 | 0.00 | 0.00 | 31 | 1026.9 |
| 20260906110004 | 18 | 203 | 3.2 | 22.5 | 0.00 | 0.00 | 0.00 | 30 | 1026.6 |
| 20260906105004 | 18 | 188 | 3.2 | 17.7 | 0.00 | 0.00 | 0.00 | 30 | 1026.5 |
| 20260906104005 | 17 | 211 | 3.2 | 16.1 | 0.00 | 0.00 | 0.00 | 31 | 1026.9 |
| 20260906103004 | 17 | 168 | 3.2 | 17.7 | 0.00 | 0.00 | 0.00 | 35 | 1027.1 |
| 20260906102004 | 16 | 152 | 1.6 | 9.7 | 0.00 | 0.00 | 0.00 | 37 | 1027.5 |
| 20260906101004 | 17 | 105 | 3.2 | 12.9 | 0.00 | 0.00 | 0.00 | 35 | 1027.3 |
| 20260906100004 | 15 | 104 | 1.6 | 12.9 | 0.00 | 0.00 | 0.00 | 37 | 1028.3 |
| 20260906095005 | 13 | 134 | 0.0 | 8.0 | 0.00 | 0.00 | 0.00 | 47 | 1029.5 |
| 20260906094004 | 13 | 66 | 0.0 | 4.8 | 0.00 | 0.00 | 0.00 | 52 | 1029.5 |
| 20260906093005 | 13 | 41 | 1.6 | 6.4 | 0.00 | 0.00 | 0.00 | 48 | 1029.2 |
| 20260906092005 | 13 | 37 | 1.6 | 8.0 | 0.00 | 0.00 | 0.00 | 52 | 1029.7 |
| 20260906091004 | 12 | 27 | 1.6 | 9.7 | 0.00 | 0.00 | 0.00 | 55 | 1029.9 |
| 20260906090004 | 12 | 8 | 1.6 | 8.0 | 0.00 | 0.00 | 0.00 | 54 | 1029.6 |
| 20260906085004 | 13 | 13 | 0.0 | 4.8 | 0.00 | 0.00 | 0.00 | 53 | 1029.0 |
| 20260906084004 | 16 | 105 | 1.6 | 11.3 | 0.00 | 0.00 | 0.00 | 47 | 1027.4 |
| 20260906083004 | 20 | 188 | 1.6 | 12.9 | 0.00 | 0.00 | 0.00 | 28 | 1024.9 |
| 20260906082004 | 20 | 192 | 3.2 | 12.9 | 0.00 | 0.00 | 0.00 | 27 | 1024.9 |
| 20260906081004 | 20 | 158 | 3.2 | 14.5 | 0.00 | 0.00 | 0.00 | 27 | 1024.7 |
| 20260906080004 | 21 | 172 | 3.2 | 19.3 | 0.00 | 0.00 | 0.00 | 24 | 1024.2 |
| 20260906075005 | 21 | 174 | 3.2 | 16.1 | 0.00 | 0.00 | 0.00 | 25 | 1024.5 |
| 20260906074005 | 20 | 192 | 3.2 | 14.5 | 0.00 | 0.00 | 0.00 | 27 | 1025.1 |
| 20260906073005 | 19 | 176 | 3.2 | 17.7 | 0.00 | 0.00 | 0.00 | 28 | 1025.4 |
| 20260906072004 | 19 | 150 | 3.2 | 14.5 | 0.00 | 0.00 | 0.00 | 29 | 1025.5 |
| 20260906071004 | 17 | 178 | 1.6 | 12.9 | 0.00 | 0.00 | 0.00 | 34 | 1026.6 |
| 20260906070004 | 14 | 231 | 0.0 | 8.0 | 0.00 | 0.00 | 0.00 | 50 | 1028.3 |
| 20260906065004 | 14 | 44 | 0.0 | 4.8 | 0.00 | 0.00 | 0.00 | 51 | 1028.3 |
| 20260906064004 | 15 | 56 | 0.0 | 6.4 | 0.00 | 0.00 | 0.00 | 48 | 1028.0 |
| 20260906063005 | 14 | 45 | 0.0 | 3.2 | 0.00 | 0.00 | 0.00 | 52 | 1028.5 |
| 20260906062004 | 14 | 29 | 1.6 | 8.0 | 0.00 | 0.00 | 0.00 | 51 | 1028.6 |
| 20260906061004 | 15 | 312 | 1.6 | 8.0 | 0.00 | 0.00 | 0.00 | 51 | 1027.9 |
| 20260906060004 | 15 | 132 | 1.6 | 9.7 | 0.00 | 0.00 | 0.00 | 48 | 1027.9 |
| 20260906055004 | 15 | 42 | 1.6 | 12.9 | 0.00 | 0.00 | 0.00 | 53 | 1028.1 |
| 20260906054004 | 14 | 25 | 0.0 | 4.8 | 0.00 | 0.00 | 0.00 | 51 | 1028.3 |
| 20260906053004 | 15 | 133 | 0.0 | 4.8 | 0.00 | 0.00 | 0.00 | 53 | 1028.2 |
| 20260906052004 | 15 | 257 | 0.0 | 4.8 | 0.00 | 0.00 | 0.00 | 52 | 1027.8 |
| 20260906051004 | 15 | 353 | 0.0 | 3.2 | 0.00 | 0.00 | 0.00 | 48 | 1027.6 |
| 20260906050004 | 15 | 69 | 0.0 | 4.8 | 0.00 | 0.00 | 0.00 | 50 | 1027.7 |
| 20260906045004 | 16 | 290 | 0.0 | 4.8 | 0.00 | 0.00 | 0.00 | 47 | 1027.5 |
| 20260906044004 | 16 | 70 | 0.0 | 1.6 | 0.00 | 0.00 | 0.00 | 46 | 1027.4 |
| 20260906043004 | 16 | 156 | 0.0 | 3.2 | 0.00 | 0.00 | 0.00 | 45 | 1027.0 |
| 20260906042004 | 17 | 318 | 0.0 | 3.2 | 0.00 | 0.00 | 0.00 | 42 | 1026.7 |
| 20260906041008 | 17 | 2 | 0.0 | 3.2 | 0.00 | 0.00 | 0.00 | 40 | 1026.4 |
| 20260906040004 | 17 | 10 | 0.0 | 3.2 | 0.00 | 0.00 | 0.00 | 40 | 1026.4 |
| 20260906035005 | 17 | 62 | 0.0 | 8.0 | 0.00 | 0.00 | 0.00 | 40 | 1026.3 |
| 20260906034005 | 18 | 145 | 0.0 | 4.8 | 0.00 | 0.00 | 0.00 | 40 | 1025.9 |
| 20260906033005 | 18 | 206 | 1.6 | 8.0 | 0.00 | 0.00 | 0.00 | 38 | 1025.2 |
| 20260906032005 | 18 | 210 | 1.6 | 8.0 | 0.00 | 0.00 | 0.00 | 38 | 1025.2 |
| 20260906031005 | 20 | 231 | 1.6 | 9.7 | 0.00 | 0.00 | 0.00 | 34 | 1024.3 |
| 20260906030005 | 20 | 211 | 1.6 | 8.0 | 0.00 | 0.00 | 0.00 | 33 | 1024.1 |
| 20260906025005 | 20 | 232 | 0.0 | 6.4 | 0.00 | 0.00 | 0.00 | 37 | 1024.6 |
| 20260906024005 | 20 | 276 | 0.0 | 4.8 | 0.00 | 0.00 | 0.00 | 38 | 1024.3 |
| 20260906023005 | 20 | 150 | 0.0 | 4.8 | 0.00 | 0.00 | 0.00 | 38 | 1024.1 |
| 20260906022005 | 20 | 143 | 0.0 | 4.8 | 0.00 | 0.00 | 0.00 | 39 | 1023.9 |
| 20260906021005 | 21 | 199 | 0.0 | 4.8 | 0.00 | 0.00 | 0.00 | 36 | 1023.6 |
| 20260906020005 | 22 | 130 | 1.6 | 4.8 | 0.00 | 0.00 | 0.00 | 36 | 1023.0 |
| 20260906015005 | 22 | 125 | 0.0 | 6.4 | 0.00 | 0.00 | 0.00 | 33 | 1022.7 |
| 20260906014005 | 23 | 89 | 0.0 | 3.2 | 0.00 | 0.00 | 0.00 | 34 | 1022.2 |
| 20260906013005 | 26 | 87 | 1.6 | 4.8 | 0.00 | 0.00 | 0.00 | 30 | 1020.9 |
| 20260906012005 | 27 | 89 | 1.6 | 6.4 | 0.00 | 0.00 | 0.00 | 28 | 1020.6 |
| 20260906011005 | 27 | 109 | 0.0 | 3.2 | 0.00 | 0.00 | 0.00 | 21 | 1020.6 |
| 20260906010005 | 30 | 182 | 0.0 | 4.8 | 0.00 | 0.00 | 0.00 | 24 | 1019.2 |
| 20260906005005 | 29 | 219 | 1.6 | 6.4 | 0.00 | 0.00 | 0.00 | 22 | 1019.4 |
| 20260906004005 | 28 | 205 | 1.6 | 9.7 | 0.00 | 0.00 | 0.00 | 24 | 1020.0 |
| 20260906003005 | 29 | 214 | 3.2 | 19.3 | 0.00 | 0.00 | 0.00 | 21 | 1019.6 |
| 20260906002005 | 29 | 223 | 3.2 | 14.5 | 0.00 | 0.00 | 0.00 | 21 | 1019.3 |
| 20260906001005 | 30 | 235 | 3.2 | 12.9 | 0.00 | 0.00 | 0.00 | 18 | 1018.6 |
| 20260906000005 | 30 | 226 | 1.6 | 11.3 | 0.00 | 0.00 | 0.00 | 19 | 1018.9 |
| 20260905235005 | 29 | 239 | 4.8 | 20.9 | 0.00 | 0.00 | 0.00 | 20 | 1019.1 |